Terminal Aerodrome Forecast
Issued by NWS

Home | Current Version | Previous Version | Text Only | Print | Product List | Glossary On
Versions: 1 2 3 4 5 6 7 8 9 10 11 12 13 14 15
000
FTUS45 KSLC 240527
TAFENV
TAF
KENV 240527Z 2406/2506 VRB04KT P6SM SKC
     FM241700 11007KT P6SM SKC
     FM241900 25020G30KT P6SM SCT120
     FM250200 34018G27KT P6SM VCSH SCT060 BKN120=

USA.gov is the U.S. government's official web portal to all federal, state and local government web resources and services.